createdAt,value
2022-08-16T00:01:22.217Z,25.21
2022-08-16T00:03:52.612Z,25.21
2022-08-16T00:06:20.632Z,25.24
2022-08-16T00:08:50.279Z,25.21
2022-08-16T00:11:20.767Z,25.24
2022-08-16T00:13:53.378Z,25.24
2022-08-16T00:17:01.326Z,25.26
2022-08-16T00:19:13.744Z,25.28
2022-08-16T00:21:43.287Z,25.29
2022-08-16T00:24:13.289Z,25.25
2022-08-16T00:26:59.402Z,25.31
2022-08-16T00:29:29.730Z,25.33
2022-08-16T00:31:59.642Z,25.31
2022-08-16T00:34:44.220Z,25.33
2022-08-16T00:37:18.532Z,25.29
2022-08-16T00:39:57.237Z,25.30
2022-08-16T00:42:29.688Z,25.25
2022-08-16T00:45:06.324Z,25.18
2022-08-16T00:47:37.077Z,25.19
2022-08-16T00:50:08.203Z,25.16
2022-08-16T00:52:50.420Z,25.12
2022-08-16T00:55:23.310Z,24.96
2022-08-16T00:58:00.104Z,24.78
2022-08-16T01:00:29.226Z,25.01
2022-08-16T01:02:58.005Z,24.97
2022-08-16T01:05:27.088Z,24.94
2022-08-16T01:07:55.164Z,24.88
2022-08-16T01:10:32.168Z,24.89
2022-08-16T01:13:05.365Z,24.89
2022-08-16T01:15:34.363Z,24.86
2022-08-16T01:18:02.363Z,24.85
2022-08-16T01:20:32.942Z,24.80
2022-08-16T01:23:08.464Z,24.52
2022-08-16T01:25:39.844Z,24.65
2022-08-16T01:28:09.173Z,24.64
2022-08-16T01:30:39.819Z,24.52
2022-08-16T01:33:17.492Z,24.75
2022-08-16T01:35:52.551Z,24.73
2022-08-16T01:38:28.367Z,24.67
2022-08-16T01:41:01.700Z,24.71
2022-08-16T01:43:31.433Z,24.73
2022-08-16T01:46:00.325Z,24.74
2022-08-16T01:48:48.424Z,24.76
2022-08-16T01:51:17.637Z,24.74
2022-08-16T01:53:54.472Z,24.66
2022-08-16T01:56:25.479Z,24.72
2022-08-16T01:58:54.798Z,24.72
2022-08-16T02:01:23.091Z,24.67
2022-08-16T02:03:53.980Z,24.73
2022-08-16T02:06:34.230Z,24.74
2022-08-16T02:09:06.113Z,24.76
2022-08-16T02:11:42.985Z,24.75
2022-08-16T02:14:18.447Z,24.76
2022-08-16T02:16:49.619Z,24.74
2022-08-16T02:19:18.533Z,24.75
2022-08-16T02:22:08.224Z,24.66
2022-08-16T02:24:41.025Z,24.72
2022-08-16T02:27:11.449Z,24.69
2022-08-16T02:29:41.285Z,24.65
2022-08-16T02:32:51.149Z,24.67
2022-08-16T02:34:57.752Z,24.66
2022-08-16T02:37:51.378Z,24.61
2022-08-16T02:40:16.958Z,24.63
2022-08-16T02:42:48.076Z,24.62
2022-08-16T02:45:18.507Z,24.59
2022-08-16T02:48:00.979Z,24.58
2022-08-16T02:50:53.751Z,24.50
2022-08-16T02:53:23.582Z,24.48
2022-08-16T02:55:52.300Z,24.39
2022-08-16T02:58:24.858Z,24.36
2022-08-16T03:00:55.883Z,24.19
2022-08-16T03:03:24.923Z,24.13
2022-08-16T03:05:53.300Z,24.29
2022-08-16T03:08:52.647Z,24.22
2022-08-16T03:11:16.561Z,24.31
2022-08-16T03:13:47.761Z,24.28
2022-08-16T03:16:37.591Z,24.32
2022-08-16T03:19:07.518Z,24.33
2022-08-16T03:21:37.885Z,24.30
2022-08-16T03:24:29.037Z,24.37
2022-08-16T03:26:58.105Z,24.32
2022-08-16T03:29:30.182Z,24.02
2022-08-16T03:31:59.231Z,24.38
2022-08-16T03:34:27.735Z,24.39
2022-08-16T03:36:55.780Z,24.22
2022-08-16T03:39:23.813Z,24.39
2022-08-16T03:41:59.711Z,24.31
2022-08-16T03:44:40.815Z,24.40
2022-08-16T03:47:12.867Z,24.11
2022-08-16T03:49:52.001Z,24.30
2022-08-16T03:52:20.607Z,23.77
2022-08-16T03:54:53.212Z,24.34
2022-08-16T03:57:21.812Z,24.33
2022-08-16T03:59:51.854Z,24.31
2022-08-16T04:02:22.209Z,24.30
2022-08-16T04:04:50.786Z,24.31
2022-08-16T04:07:18.817Z,24.29
2022-08-16T04:09:47.125Z,24.19
2022-08-16T04:12:52.461Z,24.31
2022-08-16T04:15:07.835Z,24.29
2022-08-16T04:17:35.962Z,24.25
2022-08-16T04:20:31.103Z,24.30
2022-08-16T04:22:56.118Z,24.22
2022-08-16T04:25:24.171Z,24.32
2022-08-16T04:27:55.656Z,24.30
2022-08-16T04:30:32.233Z,24.13
2022-08-16T04:33:04.411Z,24.04
2022-08-16T04:35:34.376Z,24.18
2022-08-16T04:38:10.851Z,24.02
2022-08-16T04:40:50.038Z,24.36
2022-08-16T04:45:47.456Z,24.37
2022-08-16T04:48:32.592Z,24.43
2022-08-16T04:51:07.823Z,24.45
2022-08-16T04:53:41.508Z,24.36
2022-08-16T04:56:11.310Z,24.44
2022-08-16T04:58:45.964Z,24.38
2022-08-16T05:01:17.752Z,24.49
2022-08-16T05:04:00.454Z,24.51
2022-08-16T05:06:42.266Z,24.57
2022-08-16T05:09:13.824Z,24.62
2022-08-16T05:11:44.217Z,24.62
2022-08-16T05:14:12.031Z,24.71
2022-08-16T05:17:01.220Z,24.77
2022-08-16T05:19:35.958Z,24.81
2022-08-16T05:22:04.301Z,24.88
2022-08-16T05:24:32.676Z,24.92
2022-08-16T05:27:00.524Z,24.81
2022-08-16T05:30:00.142Z,25.04
2022-08-16T05:32:32.870Z,25.09
2022-08-16T05:35:02.468Z,24.93
2022-08-16T05:37:39.669Z,25.23
2022-08-16T05:40:09.757Z,25.16
2022-08-16T05:42:41.188Z,25.28
2022-08-16T05:45:21.378Z,25.06
2022-08-16T05:47:59.537Z,25.24
2022-08-16T05:50:34.310Z,25.45
2022-08-16T05:53:02.757Z,25.42
2022-08-16T05:55:30.833Z,25.44
2022-08-16T05:58:03.124Z,25.65
2022-08-16T06:00:31.395Z,25.70
2022-08-16T06:03:00.655Z,25.75
2022-08-16T06:05:28.674Z,25.46
2022-08-16T06:07:58.230Z,25.88
2022-08-16T06:10:32.328Z,26.00
2022-08-16T06:13:01.256Z,26.24
2022-08-16T06:15:30.677Z,26.56
2022-08-16T06:18:00.521Z,26.90
2022-08-16T06:20:35.358Z,27.33
2022-08-16T06:23:17.278Z,27.38
2022-08-16T06:25:53.270Z,28.07
2022-08-16T06:28:36.376Z,28.58
2022-08-16T06:31:05.110Z,29.35
2022-08-16T06:33:41.932Z,29.49
2022-08-16T06:36:11.700Z,30.31
2022-08-16T06:38:55.837Z,30.61
2022-08-16T06:41:27.405Z,30.94
2022-08-16T06:43:56.455Z,31.49
2022-08-16T06:46:31.658Z,31.99
2022-08-16T06:49:01.871Z,32.55
2022-08-16T06:51:45.884Z,33.04
2022-08-16T06:54:16.494Z,33.55
2022-08-16T06:56:44.517Z,33.99
2022-08-16T06:59:13.690Z,34.18
2022-08-16T07:01:55.144Z,34.76
2022-08-16T07:04:31.568Z,35.09
2022-08-16T07:07:00.401Z,35.45
2022-08-16T07:09:29.749Z,35.74
2022-08-16T07:12:03.409Z,36.02
2022-08-16T07:14:31.932Z,36.40
2022-08-16T07:17:00.214Z,36.74
2022-08-16T07:20:01.340Z,37.08
2022-08-16T07:22:38.286Z,37.46
2022-08-16T07:25:09.382Z,37.82
2022-08-16T07:27:38.297Z,38.12
2022-08-16T07:30:46.020Z,38.35
2022-08-16T07:32:56.732Z,38.37
2022-08-16T07:35:26.170Z,38.50
2022-08-16T07:37:54.302Z,38.55
2022-08-16T07:40:36.854Z,38.60
2022-08-16T07:43:10.191Z,38.89
2022-08-16T07:45:39.053Z,39.27
2022-08-16T07:48:11.592Z,39.72
2022-08-16T07:50:56.240Z,40.11
2022-08-16T07:53:28.927Z,40.49
2022-08-16T07:55:57.757Z,40.69
2022-08-16T07:58:33.967Z,41.19
2022-08-16T08:01:05.625Z,41.09
2022-08-16T08:03:41.549Z,40.98
2022-08-16T08:06:13.549Z,41.10
2022-08-16T08:08:51.380Z,41.24
2022-08-16T08:11:21.379Z,41.31
2022-08-16T08:13:50.602Z,41.63
2022-08-16T08:16:19.939Z,41.87
2022-08-16T08:18:50.512Z,42.23
2022-08-16T08:21:26.173Z,42.50
2022-08-16T08:23:57.688Z,42.59
2022-08-16T08:26:26.106Z,42.87
2022-08-16T08:29:01.100Z,43.15
2022-08-16T08:31:29.154Z,43.53
2022-08-16T08:34:00.044Z,43.66
2022-08-16T08:36:33.642Z,44.07
2022-08-16T08:39:03.161Z,44.40
2022-08-16T08:41:42.514Z,44.75
2022-08-16T08:44:29.130Z,44.89
2022-08-16T08:47:00.553Z,45.19
2022-08-16T08:49:46.501Z,45.37
2022-08-16T08:52:34.915Z,45.86
2022-08-16T08:55:10.362Z,46.32
2022-08-16T08:57:40.580Z,46.59
2022-08-16T09:00:13.891Z,46.97
2022-08-16T09:02:44.439Z,47.26
2022-08-16T09:05:15.267Z,47.61
2022-08-16T09:08:00.717Z,47.96
2022-08-16T09:10:30.335Z,48.35
2022-08-16T09:12:58.354Z,48.49
2022-08-16T09:15:26.433Z,48.62
2022-08-16T09:18:02.093Z,48.90
2022-08-16T09:20:59.938Z,49.11
2022-08-16T09:23:43.797Z,49.04
2022-08-16T09:26:45.331Z,49.31
2022-08-16T09:29:23.738Z,49.72
2022-08-16T09:31:53.851Z,49.87
2022-08-16T09:34:21.835Z,50.01
2022-08-16T09:36:49.989Z,50.35
2022-08-16T09:39:23.949Z,50.60
2022-08-16T09:41:53.687Z,50.87
2022-08-16T09:45:11.421Z,51.20
2022-08-16T09:47:11.673Z,51.43
2022-08-16T09:49:40.989Z,51.66
2022-08-16T09:52:09.532Z,51.92
2022-08-16T09:54:44.513Z,52.14
2022-08-16T09:57:13.261Z,52.20
2022-08-16T09:59:42.144Z,52.68
2022-08-16T10:02:27.234Z,52.83
2022-08-16T10:04:56.575Z,52.89
2022-08-16T10:07:24.853Z,53.06
2022-08-16T10:09:56.407Z,53.40
2022-08-16T10:12:44.212Z,53.72
2022-08-16T10:15:15.438Z,54.08
2022-08-16T10:17:45.648Z,54.22
2022-08-16T10:20:29.766Z,54.36
2022-08-16T10:23:03.534Z,54.52
2022-08-16T10:27:16.123Z,54.37
2022-08-16T10:28:32.416Z,54.66
2022-08-16T10:31:08.731Z,54.79
2022-08-16T10:33:40.561Z,55.06
2022-08-16T10:36:09.155Z,55.40
2022-08-16T10:38:41.975Z,55.56
2022-08-16T10:41:16.143Z,55.87
2022-08-16T10:43:45.348Z,56.00
2022-08-16T10:46:40.063Z,56.15
2022-08-16T10:49:06.611Z,55.97
2022-08-16T10:52:02.346Z,55.06
2022-08-16T10:54:29.193Z,56.78
2022-08-16T10:56:59.659Z,56.79
2022-08-16T10:59:39.014Z,56.51
2022-08-16T11:02:58.530Z,57.26
2022-08-16T11:05:08.920Z,54.57
2022-08-16T11:07:52.216Z,55.76
2022-08-16T11:19:05.554Z,56.82
2022-08-16T11:22:39.650Z,56.90
2022-08-16T11:24:41.216Z,56.55
2022-08-16T11:27:22.865Z,55.24
2022-08-16T11:29:55.659Z,55.36
2022-08-16T11:32:31.890Z,54.93
2022-08-16T11:35:14.961Z,54.39
2022-08-16T11:40:38.790Z,55.03
2022-08-16T11:43:10.094Z,54.30
2022-08-16T11:45:42.433Z,52.60
2022-08-16T11:48:11.066Z,49.56
2022-08-16T11:50:39.427Z,48.27
2022-08-16T11:53:08.377Z,46.76
2022-08-16T11:55:38.175Z,48.16
2022-08-16T11:58:07.350Z,46.82
2022-08-16T12:00:51.305Z,44.22
2022-08-16T12:03:34.973Z,45.63
2022-08-16T12:06:11.001Z,43.30
2022-08-16T12:08:56.524Z,44.18
2022-08-16T12:11:31.691Z,42.49
2022-08-16T12:14:00.444Z,42.50
2022-08-16T12:16:31.228Z,40.92
2022-08-16T12:19:04.363Z,41.68
2022-08-16T12:21:57.575Z,41.75
2022-08-16T12:24:21.392Z,40.99
2022-08-16T12:26:52.362Z,40.59
2022-08-16T12:29:20.690Z,39.20
2022-08-16T12:32:01.556Z,40.43
2022-08-16T12:34:50.960Z,39.47
2022-08-16T12:37:21.422Z,40.51
2022-08-16T12:40:01.658Z,40.35
2022-08-16T12:42:35.734Z,40.58
2022-08-16T12:45:06.218Z,40.03
2022-08-16T12:47:53.221Z,40.59
2022-08-16T12:50:32.989Z,40.69
2022-08-16T12:53:01.551Z,40.74
2022-08-16T12:55:33.702Z,40.03
2022-08-16T12:58:13.718Z,38.35
2022-08-16T13:00:59.090Z,40.95
2022-08-16T13:03:32.142Z,39.20
2022-08-16T13:06:02.771Z,38.56
2022-08-16T13:08:33.334Z,39.07
2022-08-16T13:11:03.837Z,40.32
2022-08-16T13:13:34.366Z,38.40
2022-08-16T13:16:15.361Z,40.27
2022-08-16T13:18:52.474Z,37.47
2022-08-16T13:21:24.439Z,39.90
2022-08-16T13:23:55.221Z,40.31
2022-08-16T13:26:26.298Z,40.25
2022-08-16T13:28:55.848Z,38.86
2022-08-16T13:31:24.611Z,40.12
2022-08-16T13:33:58.621Z,40.06
2022-08-16T13:39:17.146Z,39.89
2022-08-16T13:41:45.073Z,39.84
2022-08-16T13:44:30.899Z,39.76
2022-08-16T13:47:10.525Z,39.80
2022-08-16T13:49:38.488Z,39.77
2022-08-16T13:52:09.748Z,39.72
2022-08-16T13:54:37.677Z,39.68
2022-08-16T13:57:06.159Z,39.71
2022-08-16T13:59:34.556Z,39.60
2022-08-16T14:02:07.051Z,39.45
2022-08-16T14:04:38.220Z,39.31
2022-08-16T14:07:10.391Z,39.23
2022-08-16T14:09:38.541Z,39.19
2022-08-16T14:12:17.485Z,39.17
2022-08-16T14:14:45.933Z,39.10
2022-08-16T14:17:14.954Z,39.01
2022-08-16T14:19:46.100Z,38.96
2022-08-16T14:25:21.002Z,39.02
2022-08-16T14:27:52.548Z,38.95
2022-08-16T14:30:22.748Z,39.06
2022-08-16T14:32:51.527Z,39.05
2022-08-16T14:35:21.575Z,38.99
2022-08-16T14:37:57.631Z,38.90
2022-08-16T14:40:29.051Z,38.85
2022-08-16T14:42:57.437Z,38.80
2022-08-16T14:45:26.935Z,38.74
2022-08-16T14:47:55.273Z,38.69
2022-08-16T14:50:24.036Z,38.68
2022-08-16T14:53:13.244Z,38.65
2022-08-16T14:55:42.522Z,38.60
2022-08-16T14:58:19.665Z,38.55
2022-08-16T15:00:50.792Z,38.52
2022-08-16T15:03:21.823Z,38.06
2022-08-16T15:05:53.959Z,38.38
2022-08-16T15:08:22.032Z,38.29
2022-08-16T15:11:06.075Z,38.09
2022-08-16T15:13:35.948Z,38.09
2022-08-16T15:16:04.652Z,37.94
2022-08-16T15:18:33.566Z,37.81
2022-08-16T15:21:02.161Z,37.74
2022-08-16T15:23:33.541Z,37.60
2022-08-16T15:26:03.632Z,37.51
2022-08-16T15:28:36.776Z,37.46
2022-08-16T15:31:06.531Z,37.43
2022-08-16T15:33:43.290Z,37.36
2022-08-16T15:36:13.864Z,37.35
2022-08-16T15:38:56.176Z,37.32
2022-08-16T15:41:54.332Z,37.31
2022-08-16T15:44:25.017Z,36.86
2022-08-16T15:46:59.841Z,37.18
2022-08-16T15:49:34.738Z,37.04
2022-08-16T15:52:08.143Z,36.99
2022-08-16T15:54:52.657Z,37.01
2022-08-16T15:57:22.240Z,36.92
2022-08-16T15:59:52.693Z,36.83
2022-08-16T16:02:30.344Z,36.76
2022-08-16T16:05:00.851Z,36.66
2022-08-16T16:07:31.016Z,36.51
2022-08-16T16:09:59.545Z,36.55
2022-08-16T16:12:50.850Z,36.18
2022-08-16T16:15:18.400Z,36.35
2022-08-16T16:17:50.644Z,36.33
2022-08-16T16:20:19.464Z,36.29
2022-08-16T16:22:49.980Z,36.18
2022-08-16T16:25:18.432Z,36.10
2022-08-16T16:27:46.655Z,36.07
2022-08-16T16:30:37.968Z,36.00
2022-08-16T16:33:20.416Z,35.84
2022-08-16T16:35:55.399Z,35.76
2022-08-16T16:38:26.875Z,35.79
2022-08-16T16:40:54.914Z,35.69
2022-08-16T16:43:25.953Z,34.79
2022-08-16T16:46:01.666Z,35.56
2022-08-16T16:48:34.749Z,34.33
2022-08-16T16:51:19.677Z,35.50
2022-08-16T16:53:56.539Z,35.47
2022-08-16T16:59:21.421Z,34.77
2022-08-16T17:02:41.768Z,34.74
2022-08-16T17:04:58.539Z,35.04
2022-08-16T17:07:39.938Z,34.58
2022-08-16T17:10:10.774Z,34.08
2022-08-16T17:12:47.105Z,33.66
2022-08-16T17:15:27.880Z,31.84
2022-08-16T17:19:16.173Z,33.96
2022-08-16T17:20:56.417Z,33.83
2022-08-16T17:23:59.167Z,34.41
2022-08-16T17:26:13.872Z,33.29
2022-08-16T17:28:59.090Z,34.24
2022-08-16T17:31:43.429Z,34.60
2022-08-16T17:34:29.238Z,33.64
2022-08-16T17:36:59.545Z,32.16
2022-08-16T17:39:29.905Z,34.35
2022-08-16T17:41:58.606Z,34.28
2022-08-16T17:44:27.354Z,33.10
2022-08-16T17:46:58.220Z,34.12
2022-08-16T17:49:36.220Z,34.04
2022-08-16T17:52:05.166Z,32.11
2022-08-16T17:54:33.354Z,33.30
2022-08-16T17:57:01.825Z,31.42
2022-08-16T17:59:30.143Z,33.69
2022-08-16T18:01:58.475Z,32.92
2022-08-16T18:04:49.019Z,33.06
2022-08-16T18:07:17.283Z,31.74
2022-08-16T18:09:46.072Z,33.44
2022-08-16T18:12:54.860Z,32.71
2022-08-16T18:15:07.375Z,31.56
2022-08-16T18:17:35.684Z,30.59
2022-08-16T18:20:04.419Z,33.03
2022-08-16T18:22:34.494Z,32.96
2022-08-16T18:25:03.393Z,31.84
2022-08-16T18:27:36.879Z,32.09
2022-08-16T18:30:05.994Z,30.94
2022-08-16T18:32:35.018Z,31.83
2022-08-16T18:35:04.382Z,31.82
2022-08-16T18:37:35.049Z,29.93
2022-08-16T18:40:04.783Z,30.55
2022-08-16T18:42:34.222Z,29.35
2022-08-16T18:45:39.567Z,29.17
2022-08-16T18:48:11.838Z,31.98
2022-08-16T18:50:59.926Z,30.68
2022-08-16T18:53:36.761Z,30.65
2022-08-16T18:56:07.480Z,30.70
2022-08-16T18:58:36.311Z,31.78
2022-08-16T19:01:07.932Z,28.93
2022-08-16T19:03:38.558Z,29.55
2022-08-16T19:06:13.743Z,29.42
2022-08-16T19:08:47.272Z,30.96
2022-08-16T19:11:19.641Z,30.96
2022-08-16T19:13:49.333Z,31.22
2022-08-16T19:16:23.426Z,30.88
2022-08-16T19:18:52.481Z,29.58
2022-08-16T19:21:22.542Z,31.34
2022-08-16T19:23:58.945Z,29.80
2022-08-16T19:26:28.420Z,29.64
2022-08-16T19:29:03.654Z,31.15
2022-08-16T19:31:51.077Z,30.59
2022-08-16T19:34:19.503Z,30.36
2022-08-16T19:36:49.569Z,28.68
2022-08-16T19:39:21.057Z,30.44
2022-08-16T19:41:53.242Z,28.61
2022-08-16T19:44:22.983Z,30.93
2022-08-16T19:46:52.228Z,29.63
2022-08-16T19:49:20.927Z,30.97
2022-08-16T19:51:49.465Z,30.14
2022-08-16T19:54:20.202Z,29.54
2022-08-16T19:56:48.795Z,30.51
2022-08-16T19:59:19.778Z,28.92
2022-08-16T20:01:54.111Z,30.74
2022-08-16T20:04:24.235Z,30.67
2022-08-16T20:06:55.069Z,29.27
2022-08-16T20:09:57.167Z,29.54
2022-08-16T20:12:27.482Z,27.44
2022-08-16T20:15:00.812Z,29.76
2022-08-16T20:17:29.383Z,30.34
2022-08-16T20:19:57.809Z,28.11
2022-08-16T20:22:51.870Z,30.18
2022-08-16T20:25:17.559Z,29.64
2022-08-16T20:27:48.264Z,29.40
2022-08-16T20:30:18.575Z,29.99
2022-08-16T20:32:48.105Z,28.16
2022-08-16T20:35:22.211Z,29.23
2022-08-16T20:37:51.480Z,29.28
2022-08-16T20:40:33.288Z,29.84
2022-08-16T20:43:08.212Z,27.55
2022-08-16T20:45:38.601Z,29.66
2022-08-16T20:48:07.781Z,26.71
2022-08-16T20:50:36.887Z,27.43
2022-08-16T20:53:05.980Z,28.63
2022-08-16T20:55:35.891Z,27.79
2022-08-16T20:58:06.363Z,27.22
2022-08-16T21:00:38.282Z,27.61
2022-08-16T21:03:08.624Z,28.70
2022-08-16T21:05:37.679Z,26.53
2022-08-16T21:08:29.399Z,27.53
2022-08-16T21:10:56.515Z,27.98
2022-08-16T21:13:26.961Z,27.46
2022-08-16T21:16:02.181Z,28.53
2022-08-16T21:18:30.657Z,27.63
2022-08-16T21:20:59.077Z,26.65
2022-08-16T21:23:27.074Z,29.05
2022-08-16T21:25:58.004Z,28.98
2022-08-16T21:28:39.522Z,28.93
2022-08-16T21:31:11.271Z,28.81
2022-08-16T21:33:39.389Z,28.72
2022-08-16T21:36:07.686Z,28.72
2022-08-16T21:38:35.691Z,28.71
2022-08-16T21:41:04.013Z,28.67
2022-08-16T21:43:33.624Z,28.64
2022-08-16T21:46:01.775Z,28.69
2022-08-16T21:48:33.848Z,28.36
2022-08-16T21:51:03.767Z,28.65
2022-08-16T21:53:33.971Z,28.72
2022-08-16T21:56:02.138Z,28.40
2022-08-16T21:58:30.377Z,28.62
2022-08-16T22:00:59.700Z,28.55
2022-08-16T22:03:27.838Z,28.50
2022-08-16T22:06:11.643Z,28.42
2022-08-16T22:08:50.600Z,28.39
2022-08-16T22:11:20.208Z,28.42
2022-08-16T22:13:57.383Z,28.36
2022-08-16T22:16:28.624Z,28.38
2022-08-16T22:18:56.554Z,28.37
2022-08-16T22:21:24.478Z,28.35
2022-08-16T22:23:57.820Z,28.17
2022-08-16T22:26:30.585Z,27.93
2022-08-16T22:29:00.763Z,28.32
2022-08-16T22:31:30.216Z,28.31
2022-08-16T22:33:58.111Z,28.32
2022-08-16T22:36:28.277Z,28.00
2022-08-16T22:38:57.993Z,28.23
2022-08-16T22:41:26.599Z,28.25
2022-08-16T22:46:30.260Z,28.09
2022-08-16T22:48:58.159Z,28.16
2022-08-16T22:51:27.003Z,27.84
2022-08-16T22:53:55.359Z,28.09
2022-08-16T22:56:23.266Z,28.02
2022-08-16T22:58:51.317Z,28.02
2022-08-16T23:01:21.523Z,27.99
2022-08-16T23:03:51.309Z,27.65
2022-08-16T23:06:19.214Z,27.90
2022-08-16T23:08:47.319Z,27.89
2022-08-16T23:11:22.386Z,27.85
2022-08-16T23:13:53.788Z,27.80
2022-08-16T23:16:23.402Z,27.72
2022-08-16T23:18:58.039Z,27.73
2022-08-16T23:21:27.799Z,27.53
2022-08-16T23:23:55.748Z,27.49
2022-08-16T23:26:36.480Z,27.56
2022-08-16T23:29:13.827Z,27.58
2022-08-16T23:31:53.287Z,27.53
2022-08-16T23:34:23.095Z,27.25
2022-08-16T23:36:50.931Z,27.46
2022-08-16T23:39:26.167Z,27.44
2022-08-16T23:41:54.159Z,27.28
2022-08-16T23:44:55.431Z,27.42
2022-08-16T23:47:09.964Z,27.40
2022-08-16T23:49:58.908Z,27.27
2022-08-16T23:52:53.944Z,27.29
2022-08-16T23:55:17.570Z,27.40
2022-08-16T23:57:46.034Z,27.41
